Terminal Aerodrome Forecast
Issued by NWS Albany, NY

Home | Current Version | Previous Version | Text Only | Print | Product List | Glossary On
Versions: 1 2 3 4 5 6 7 8 9 10 11 12 13 14 15 16 17 18 19 20 21 22
000
FTUS41 KALY 272326
TAFPOU
TAF
KPOU 272326Z 2800/2824 15004KT P6SM VCSH FEW050 FEW100 SCT120
     FM280200 18006KT P6SM VCSH BKN080
     FM280400 VRB02KT 4SM BR BKN080
     FM281000 VRB02KT 3SM BR SCT010 BKN035
     FM281400 22006KT P6SM SCT035 OVC080
     FM281800 23006KT P6SM VCSH OVC045=

USA.gov is the U.S. government's official web portal to all federal, state and local government web resources and services.